sensor_id;sensor_type;location;lat;lon;timestamp;P1;durP1;ratioP1;P2;durP2;ratioP2
21521;SDS011;10922;45.572;10.002;2023-03-25T00:00:03;6.33;;;2.40;;
21521;SDS011;10922;45.572;10.002;2023-03-25T00:02:39;3.60;;;2.27;;
21521;SDS011;10922;45.572;10.002;2023-03-25T00:05:05;7.10;;;2.70;;
21521;SDS011;10922;45.572;10.002;2023-03-25T00:07:31;3.50;;;2.13;;
21521;SDS011;10922;45.572;10.002;2023-03-25T00:09:57;3.97;;;2.50;;
21521;SDS011;10922;45.572;10.002;2023-03-25T00:12:23;2.47;;;1.57;;
21521;SDS011;10922;45.572;10.002;2023-03-25T00:14:48;5.47;;;2.50;;
21521;SDS011;10922;45.572;10.002;2023-03-25T00:17:24;3.27;;;2.57;;
21521;SDS011;10922;45.572;10.002;2023-03-25T00:19:53;5.87;;;3.03;;
21521;SDS011;10922;45.572;10.002;2023-03-25T00:22:19;4.03;;;2.40;;
21521;SDS011;10922;45.572;10.002;2023-03-25T00:24:46;6.40;;;3.00;;
21521;SDS011;10922;45.572;10.002;2023-03-25T00:27:12;5.60;;;2.60;;
21521;SDS011;10922;45.572;10.002;2023-03-25T00:29:38;4.73;;;2.30;;
21521;SDS011;10922;45.572;10.002;2023-03-25T00:32:08;5.63;;;2.50;;
21521;SDS011;10922;45.572;10.002;2023-03-25T00:34:34;5.67;;;2.47;;
21521;SDS011;10922;45.572;10.002;2023-03-25T00:37:06;6.37;;;2.70;;
21521;SDS011;10922;45.572;10.002;2023-03-25T00:39:33;4.77;;;3.07;;
21521;SDS011;10922;45.572;10.002;2023-03-25T00:41:59;4.43;;;2.70;;
21521;SDS011;10922;45.572;10.002;2023-03-25T00:44:25;4.10;;;2.67;;
21521;SDS011;10922;45.572;10.002;2023-03-25T00:46:52;5.00;;;2.90;;
21521;SDS011;10922;45.572;10.002;2023-03-25T00:49:17;4.73;;;2.93;;
21521;SDS011;10922;45.572;10.002;2023-03-25T00:51:43;6.10;;;2.93;;
21521;SDS011;10922;45.572;10.002;2023-03-25T00:54:09;5.10;;;2.90;;
21521;SDS011;10922;45.572;10.002;2023-03-25T00:56:35;6.90;;;2.47;;
21521;SDS011;10922;45.572;10.002;2023-03-25T00:59:01;5.70;;;3.30;;
21521;SDS011;10922;45.572;10.002;2023-03-25T01:01:28;3.30;;;3.00;;
21521;SDS011;10922;45.572;10.002;2023-03-25T01:03:56;3.13;;;2.77;;
21521;SDS011;10922;45.572;10.002;2023-03-25T01:06:26;5.27;;;2.70;;
21521;SDS011;10922;45.572;10.002;2023-03-25T01:08:58;6.03;;;2.93;;
21521;SDS011;10922;45.572;10.002;2023-03-25T01:11:25;4.43;;;3.03;;
21521;SDS011;10922;45.572;10.002;2023-03-25T01:13:53;8.87;;;3.40;;
21521;SDS011;10922;45.572;10.002;2023-03-25T01:16:20;4.67;;;3.10;;
21521;SDS011;10922;45.572;10.002;2023-03-25T01:18:46;7.37;;;3.37;;
21521;SDS011;10922;45.572;10.002;2023-03-25T01:21:12;5.10;;;3.50;;
21521;SDS011;10922;45.572;10.002;2023-03-25T01:23:38;4.93;;;3.50;;
21521;SDS011;10922;45.572;10.002;2023-03-25T01:26:04;2.73;;;2.33;;
21521;SDS011;10922;45.572;10.002;2023-03-25T01:28:30;5.20;;;3.03;;
21521;SDS011;10922;45.572;10.002;2023-03-25T01:31:02;7.60;;;3.33;;
21521;SDS011;10922;45.572;10.002;2023-03-25T01:33:29;5.17;;;3.17;;
21521;SDS011;10922;45.572;10.002;2023-03-25T01:35:56;6.10;;;3.37;;
21521;SDS011;10922;45.572;10.002;2023-03-25T01:38:23;3.97;;;2.70;;
21521;SDS011;10922;45.572;10.002;2023-03-25T01:40:52;5.00;;;2.80;;
21521;SDS011;10922;45.572;10.002;2023-03-25T01:43:19;6.63;;;3.33;;
21521;SDS011;10922;45.572;10.002;2023-03-25T01:45:45;4.90;;;3.23;;
21521;SDS011;10922;45.572;10.002;2023-03-25T01:48:21;3.80;;;3.50;;
21521;SDS011;10922;45.572;10.002;2023-03-25T01:50:59;6.13;;;3.43;;
21521;SDS011;10922;45.572;10.002;2023-03-25T01:53:30;6.13;;;3.50;;
21521;SDS011;10922;45.572;10.002;2023-03-25T01:55:58;6.27;;;3.43;;
21521;SDS011;10922;45.572;10.002;2023-03-25T01:58:26;4.93;;;3.40;;
21521;SDS011;10922;45.572;10.002;2023-03-25T02:00:55;5.67;;;3.40;;
21521;SDS011;10922;45.572;10.002;2023-03-25T02:03:22;8.40;;;3.40;;
21521;SDS011;10922;45.572;10.002;2023-03-25T02:06:01;5.33;;;4.17;;
21521;SDS011;10922;45.572;10.002;2023-03-25T02:08:28;5.73;;;4.00;;
21521;SDS011;10922;45.572;10.002;2023-03-25T02:10:56;11.93;;;4.40;;
21521;SDS011;10922;45.572;10.002;2023-03-25T02:13:22;7.67;;;4.40;;
21521;SDS011;10922;45.572;10.002;2023-03-25T02:15:52;5.63;;;3.97;;
21521;SDS011;10922;45.572;10.002;2023-03-25T02:18:25;5.00;;;4.03;;
21521;SDS011;10922;45.572;10.002;2023-03-25T02:28:55;7.07;;;3.80;;
21521;SDS011;10922;45.572;10.002;2023-03-25T02:31:39;5.37;;;4.27;;
21521;SDS011;10922;45.572;10.002;2023-03-25T02:42:41;4.63;;;3.50;;
21521;SDS011;10922;45.572;10.002;2023-03-25T02:45:16;3.90;;;2.97;;
21521;SDS011;10922;45.572;10.002;2023-03-25T02:47:51;5.33;;;2.90;;
21521;SDS011;10922;45.572;10.002;2023-03-25T02:50:22;6.50;;;2.60;;
21521;SDS011;10922;45.572;10.002;2023-03-25T02:52:54;4.60;;;2.77;;
21521;SDS011;10922;45.572;10.002;2023-03-25T02:55:25;7.53;;;3.43;;
21521;SDS011;10922;45.572;10.002;2023-03-25T02:57:54;6.53;;;2.80;;
21521;SDS011;10922;45.572;10.002;2023-03-25T03:00:22;6.53;;;2.70;;
21521;SDS011;10922;45.572;10.002;2023-03-25T03:02:55;8.30;;;3.00;;
21521;SDS011;10922;45.572;10.002;2023-03-25T03:05:27;5.10;;;2.80;;
21521;SDS011;10922;45.572;10.002;2023-03-25T03:11:01;6.73;;;2.90;;
21521;SDS011;10922;45.572;10.002;2023-03-25T03:22:45;3.83;;;3.40;;
21521;SDS011;10922;45.572;10.002;2023-03-25T03:27:54;7.20;;;4.90;;
21521;SDS011;10922;45.572;10.002;2023-03-25T03:30:35;6.90;;;4.77;;
21521;SDS011;10922;45.572;10.002;2023-03-25T03:35:43;8.43;;;5.40;;
21521;SDS011;10922;45.572;10.002;2023-03-25T03:38:14;11.27;;;4.70;;
21521;SDS011;10922;45.572;10.002;2023-03-25T03:40:44;8.50;;;4.70;;
21521;SDS011;10922;45.572;10.002;2023-03-25T03:44:05;8.57;;;4.10;;
21521;SDS011;10922;45.572;10.002;2023-03-25T03:46:10;7.47;;;4.17;;
21521;SDS011;10922;45.572;10.002;2023-03-25T03:48:43;7.67;;;3.80;;
21521;SDS011;10922;45.572;10.002;2023-03-25T03:51:16;7.10;;;3.93;;
21521;SDS011;10922;45.572;10.002;2023-03-25T03:54:49;11.30;;;4.50;;
21521;SDS011;10922;45.572;10.002;2023-03-25T04:00:21;8.20;;;4.33;;
21521;SDS011;10922;45.572;10.002;2023-03-25T04:04:59;4.90;;;3.67;;
21521;SDS011;10922;45.572;10.002;2023-03-25T04:07:36;8.83;;;3.70;;
21521;SDS011;10922;45.572;10.002;2023-03-25T04:10:20;13.00;;;4.23;;
21521;SDS011;10922;45.572;10.002;2023-03-25T04:13:03;8.80;;;4.30;;
21521;SDS011;10922;45.572;10.002;2023-03-25T04:15:33;4.77;;;3.50;;
21521;SDS011;10922;45.572;10.002;2023-03-25T04:17:59;6.93;;;4.33;;
21521;SDS011;10922;45.572;10.002;2023-03-25T04:20:25;10.00;;;4.40;;
21521;SDS011;10922;45.572;10.002;2023-03-25T04:22:53;5.57;;;4.40;;
21521;SDS011;10922;45.572;10.002;2023-03-25T04:25:19;9.13;;;4.10;;
21521;SDS011;10922;45.572;10.002;2023-03-25T04:27:45;5.17;;;3.97;;
21521;SDS011;10922;45.572;10.002;2023-03-25T04:30:13;5.77;;;3.97;;
21521;SDS011;10922;45.572;10.002;2023-03-25T04:32:41;9.30;;;4.83;;
21521;SDS011;10922;45.572;10.002;2023-03-25T04:35:11;9.77;;;3.97;;
21521;SDS011;10922;45.572;10.002;2023-03-25T04:37:38;10.13;;;4.10;;
21521;SDS011;10922;45.572;10.002;2023-03-25T04:40:05;7.70;;;4.40;;
21521;SDS011;10922;45.572;10.002;2023-03-25T04:42:32;9.30;;;5.33;;
21521;SDS011;10922;45.572;10.002;2023-03-25T04:45:01;8.10;;;4.67;;
21521;SDS011;10922;45.572;10.002;2023-03-25T04:47:28;6.87;;;5.07;;
21521;SDS011;10922;45.572;10.002;2023-03-25T04:49:55;8.97;;;5.07;;
21521;SDS011;10922;45.572;10.002;2023-03-25T04:52:20;8.43;;;4.63;;
21521;SDS011;10922;45.572;10.002;2023-03-25T04:54:46;8.23;;;4.77;;
21521;SDS011;10922;45.572;10.002;2023-03-25T04:57:12;10.33;;;5.03;;
21521;SDS011;10922;45.572;10.002;2023-03-25T04:59:37;8.63;;;4.87;;
21521;SDS011;10922;45.572;10.002;2023-03-25T05:02:03;8.43;;;4.40;;
21521;SDS011;10922;45.572;10.002;2023-03-25T05:04:37;9.80;;;4.37;;
21521;SDS011;10922;45.572;10.002;2023-03-25T05:07:06;6.67;;;4.33;;
21521;SDS011;10922;45.572;10.002;2023-03-25T05:09:31;7.93;;;5.07;;
21521;SDS011;10922;45.572;10.002;2023-03-25T05:11:57;11.00;;;5.43;;
21521;SDS011;10922;45.572;10.002;2023-03-25T05:14:23;8.83;;;4.83;;
21521;SDS011;10922;45.572;10.002;2023-03-25T05:16:49;7.73;;;4.80;;
21521;SDS011;10922;45.572;10.002;2023-03-25T05:19:15;9.00;;;4.33;;
21521;SDS011;10922;45.572;10.002;2023-03-25T05:21:42;11.20;;;5.73;;
21521;SDS011;10922;45.572;10.002;2023-03-25T05:24:09;8.07;;;4.50;;
21521;SDS011;10922;45.572;10.002;2023-03-25T05:26:38;8.13;;;5.20;;
21521;SDS011;10922;45.572;10.002;2023-03-25T05:29:12;6.80;;;4.80;;
21521;SDS011;10922;45.572;10.002;2023-03-25T05:31:41;14.67;;;5.30;;
21521;SDS011;10922;45.572;10.002;2023-03-25T05:34:11;9.03;;;5.30;;
21521;SDS011;10922;45.572;10.002;2023-03-25T05:36:38;9.00;;;5.27;;
21521;SDS011;10922;45.572;10.002;2023-03-25T05:39:04;9.50;;;5.47;;
21521;SDS011;10922;45.572;10.002;2023-03-25T05:41:30;7.67;;;4.80;;
21521;SDS011;10922;45.572;10.002;2023-03-25T05:44:03;7.20;;;4.43;;
21521;SDS011;10922;45.572;10.002;2023-03-25T05:46:33;7.90;;;4.70;;
21521;SDS011;10922;45.572;10.002;2023-03-25T05:48:59;7.57;;;4.03;;
21521;SDS011;10922;45.572;10.002;2023-03-25T05:51:26;6.87;;;4.57;;
21521;SDS011;10922;45.572;10.002;2023-03-25T05:53:52;5.93;;;4.57;;
21521;SDS011;10922;45.572;10.002;2023-03-25T05:56:19;6.37;;;4.63;;
21521;SDS011;10922;45.572;10.002;2023-03-25T05:58:47;4.77;;;3.83;;
21521;SDS011;10922;45.572;10.002;2023-03-25T06:01:14;8.00;;;4.67;;
21521;SDS011;10922;45.572;10.002;2023-03-25T06:03:41;5.50;;;4.70;;
21521;SDS011;10922;45.572;10.002;2023-03-25T06:06:08;14.83;;;5.60;;
21521;SDS011;10922;45.572;10.002;2023-03-25T06:08:48;7.97;;;4.80;;
21521;SDS011;10922;45.572;10.002;2023-03-25T06:11:15;13.10;;;6.17;;
21521;SDS011;10922;45.572;10.002;2023-03-25T06:13:42;9.37;;;5.07;;
21521;SDS011;10922;45.572;10.002;2023-03-25T06:16:14;7.83;;;5.00;;
21521;SDS011;10922;45.572;10.002;2023-03-25T06:18:43;9.00;;;5.40;;
21521;SDS011;10922;45.572;10.002;2023-03-25T06:21:14;9.63;;;5.73;;
21521;SDS011;10922;45.572;10.002;2023-03-25T06:23:43;12.37;;;5.60;;
21521;SDS011;10922;45.572;10.002;2023-03-25T06:26:10;8.30;;;5.43;;
21521;SDS011;10922;45.572;10.002;2023-03-25T06:28:35;9.73;;;5.30;;
21521;SDS011;10922;45.572;10.002;2023-03-25T06:31:01;7.27;;;4.83;;
21521;SDS011;10922;45.572;10.002;2023-03-25T06:33:31;11.00;;;4.97;;
21521;SDS011;10922;45.572;10.002;2023-03-25T06:35:56;7.97;;;5.47;;
21521;SDS011;10922;45.572;10.002;2023-03-25T06:38:22;10.83;;;5.53;;
21521;SDS011;10922;45.572;10.002;2023-03-25T06:40:48;9.40;;;5.10;;
21521;SDS011;10922;45.572;10.002;2023-03-25T06:43:14;10.03;;;5.10;;
21521;SDS011;10922;45.572;10.002;2023-03-25T06:45:40;10.27;;;4.80;;
21521;SDS011;10922;45.572;10.002;2023-03-25T06:48:06;6.13;;;4.87;;
21521;SDS011;10922;45.572;10.002;2023-03-25T06:50:34;7.07;;;4.73;;
21521;SDS011;10922;45.572;10.002;2023-03-25T06:53:00;6.67;;;4.73;;
21521;SDS011;10922;45.572;10.002;2023-03-25T06:55:27;7.07;;;4.37;;
21521;SDS011;10922;45.572;10.002;2023-03-25T06:57:53;10.20;;;4.80;;
21521;SDS011;10922;45.572;10.002;2023-03-25T07:00:20;9.10;;;5.80;;
21521;SDS011;10922;45.572;10.002;2023-03-25T07:02:48;6.27;;;3.27;;
21521;SDS011;10922;45.572;10.002;2023-03-25T07:05:16;7.33;;;4.97;;
21521;SDS011;10922;45.572;10.002;2023-03-25T07:07:42;9.07;;;5.30;;
21521;SDS011;10922;45.572;10.002;2023-03-25T07:10:10;6.70;;;4.20;;
21521;SDS011;10922;45.572;10.002;2023-03-25T07:12:37;9.40;;;5.63;;
21521;SDS011;10922;45.572;10.002;2023-03-25T07:15:02;11.33;;;5.93;;
21521;SDS011;10922;45.572;10.002;2023-03-25T07:17:28;14.23;;;6.50;;
21521;SDS011;10922;45.572;10.002;2023-03-25T07:19:54;8.73;;;5.40;;
21521;SDS011;10922;45.572;10.002;2023-03-25T07:22:20;10.30;;;6.50;;
21521;SDS011;10922;45.572;10.002;2023-03-25T07:24:45;8.90;;;6.57;;
21521;SDS011;10922;45.572;10.002;2023-03-25T07:27:11;11.40;;;7.27;;
21521;SDS011;10922;45.572;10.002;2023-03-25T07:29:39;9.10;;;6.77;;
21521;SDS011;10922;45.572;10.002;2023-03-25T07:32:06;10.00;;;6.43;;
21521;SDS011;10922;45.572;10.002;2023-03-25T07:34:32;9.53;;;6.60;;
21521;SDS011;10922;45.572;10.002;2023-03-25T07:36:57;16.30;;;9.80;;
21521;SDS011;10922;45.572;10.002;2023-03-25T07:39:23;13.53;;;8.17;;
21521;SDS011;10922;45.572;10.002;2023-03-25T07:41:52;13.13;;;9.03;;
21521;SDS011;10922;45.572;10.002;2023-03-25T07:44:18;12.83;;;8.40;;
21521;SDS011;10922;45.572;10.002;2023-03-25T07:46:47;13.20;;;8.67;;
21521;SDS011;10922;45.572;10.002;2023-03-25T07:49:18;14.20;;;7.97;;
21521;SDS011;10922;45.572;10.002;2023-03-25T07:51:44;12.43;;;7.17;;
21521;SDS011;10922;45.572;10.002;2023-03-25T07:54:10;14.03;;;8.07;;
21521;SDS011;10922;45.572;10.002;2023-03-25T07:56:36;13.37;;;7.97;;
21521;SDS011;10922;45.572;10.002;2023-03-25T07:59:02;16.00;;;8.37;;
21521;SDS011;10922;45.572;10.002;2023-03-25T08:01:29;10.50;;;7.50;;
21521;SDS011;10922;45.572;10.002;2023-03-25T08:03:55;5.27;;;4.77;;
21521;SDS011;10922;45.572;10.002;2023-03-25T08:06:22;12.23;;;7.70;;
21521;SDS011;10922;45.572;10.002;2023-03-25T08:08:47;11.57;;;6.93;;
21521;SDS011;10922;45.572;10.002;2023-03-25T08:11:13;9.87;;;7.63;;
21521;SDS011;10922;45.572;10.002;2023-03-25T08:13:39;12.57;;;7.53;;
21521;SDS011;10922;45.572;10.002;2023-03-25T08:16:11;9.07;;;7.43;;
21521;SDS011;10922;45.572;10.002;2023-03-25T08:18:38;11.70;;;8.27;;
21521;SDS011;10922;45.572;10.002;2023-03-25T08:21:12;13.10;;;7.50;;
21521;SDS011;10922;45.572;10.002;2023-03-25T08:23:38;9.33;;;8.23;;
21521;SDS011;10922;45.572;10.002;2023-03-25T08:26:05;12.90;;;8.17;;
21521;SDS011;10922;45.572;10.002;2023-03-25T08:28:30;7.50;;;6.33;;
21521;SDS011;10922;45.572;10.002;2023-03-25T08:30:57;13.90;;;9.23;;
21521;SDS011;10922;45.572;10.002;2023-03-25T08:33:23;11.83;;;8.53;;
21521;SDS011;10922;45.572;10.002;2023-03-25T08:35:51;10.83;;;8.80;;
21521;SDS011;10922;45.572;10.002;2023-03-25T08:38:17;11.87;;;7.40;;
21521;SDS011;10922;45.572;10.002;2023-03-25T08:40:43;12.30;;;8.17;;
21521;SDS011;10922;45.572;10.002;2023-03-25T08:43:08;11.67;;;8.00;;
21521;SDS011;10922;45.572;10.002;2023-03-25T08:45:35;14.20;;;9.20;;
21521;SDS011;10922;45.572;10.002;2023-03-25T08:48:01;10.13;;;8.90;;
21521;SDS011;10922;45.572;10.002;2023-03-25T08:50:28;11.37;;;8.93;;
21521;SDS011;10922;45.572;10.002;2023-03-25T08:52:55;14.83;;;9.97;;
21521;SDS011;10922;45.572;10.002;2023-03-25T08:55:22;16.70;;;10.37;;
21521;SDS011;10922;45.572;10.002;2023-03-25T08:57:49;15.20;;;10.70;;
21521;SDS011;10922;45.572;10.002;2023-03-25T09:00:15;11.53;;;10.33;;
21521;SDS011;10922;45.572;10.002;2023-03-25T09:02:41;11.47;;;10.30;;
21521;SDS011;10922;45.572;10.002;2023-03-25T09:05:11;15.80;;;10.47;;
21521;SDS011;10922;45.572;10.002;2023-03-25T09:07:37;12.60;;;10.43;;
21521;SDS011;10922;45.572;10.002;2023-03-25T09:10:04;11.53;;;9.53;;
21521;SDS011;10922;45.572;10.002;2023-03-25T09:12:33;13.47;;;9.77;;
21521;SDS011;10922;45.572;10.002;2023-03-25T09:14:59;12.55;;;10.38;;
21521;SDS011;10922;45.572;10.002;2023-03-25T09:17:25;11.67;;;9.30;;
21521;SDS011;10922;45.572;10.002;2023-03-25T09:19:51;13.87;;;10.63;;
21521;SDS011;10922;45.572;10.002;2023-03-25T09:22:17;12.53;;;10.20;;
21521;SDS011;10922;45.572;10.002;2023-03-25T09:24:43;15.67;;;10.00;;
21521;SDS011;10922;45.572;10.002;2023-03-25T09:27:10;11.50;;;9.83;;
21521;SDS011;10922;45.572;10.002;2023-03-25T09:29:35;14.23;;;10.40;;
21521;SDS011;10922;45.572;10.002;2023-03-25T09:32:01;12.93;;;10.70;;
21521;SDS011;10922;45.572;10.002;2023-03-25T09:34:27;9.93;;;8.87;;
21521;SDS011;10922;45.572;10.002;2023-03-25T09:36:53;12.57;;;9.70;;
21521;SDS011;10922;45.572;10.002;2023-03-25T09:39:19;10.13;;;8.70;;
21521;SDS011;10922;45.572;10.002;2023-03-25T09:41:53;11.57;;;8.93;;
21521;SDS011;10922;45.572;10.002;2023-03-25T09:47:23;12.80;;;9.33;;
21521;SDS011;10922;45.572;10.002;2023-03-25T09:49:51;10.43;;;8.47;;
21521;SDS011;10922;45.572;10.002;2023-03-25T09:52:24;12.23;;;8.80;;
21521;SDS011;10922;45.572;10.002;2023-03-25T09:55:08;8.53;;;7.13;;
21521;SDS011;10922;45.572;10.002;2023-03-25T09:57:44;9.50;;;7.30;;
21521;SDS011;10922;45.572;10.002;2023-03-25T10:00:22;10.10;;;8.13;;
21521;SDS011;10922;45.572;10.002;2023-03-25T10:03:06;8.47;;;7.77;;
21521;SDS011;10922;45.572;10.002;2023-03-25T10:05:44;9.90;;;7.13;;
21521;SDS011;10922;45.572;10.002;2023-03-25T10:08:38;9.30;;;7.47;;
21521;SDS011;10922;45.572;10.002;2023-03-25T10:19:50;8.63;;;5.67;;
21521;SDS011;10922;45.572;10.002;2023-03-25T10:25:28;7.87;;;5.73;;
21521;SDS011;10922;45.572;10.002;2023-03-25T10:27:57;5.80;;;5.30;;
21521;SDS011;10922;45.572;10.002;2023-03-25T10:30:26;7.67;;;5.03;;
21521;SDS011;10922;45.572;10.002;2023-03-25T10:33:03;5.87;;;5.27;;
21521;SDS011;10922;45.572;10.002;2023-03-25T10:35:38;9.17;;;4.93;;
21521;SDS011;10922;45.572;10.002;2023-03-25T10:38:11;4.97;;;4.53;;
21521;SDS011;10922;45.572;10.002;2023-03-25T10:40:43;6.10;;;5.30;;
21521;SDS011;10922;45.572;10.002;2023-03-25T10:43:24;6.83;;;5.30;;
21521;SDS011;10922;45.572;10.002;2023-03-25T10:46:00;6.67;;;5.37;;
21521;SDS011;10922;45.572;10.002;2023-03-25T10:48:45;10.63;;;4.97;;
21521;SDS011;10922;45.572;10.002;2023-03-25T10:51:14;4.27;;;3.40;;
21521;SDS011;10922;45.572;10.002;2023-03-25T10:53:44;4.43;;;3.67;;
21521;SDS011;10922;45.572;10.002;2023-03-25T10:56:16;8.97;;;3.40;;
21521;SDS011;10922;45.572;10.002;2023-03-25T10:58:46;5.53;;;3.00;;
21521;SDS011;10922;45.572;10.002;2023-03-25T11:01:25;10.40;;;3.60;;
21521;SDS011;10922;45.572;10.002;2023-03-25T11:03:56;3.47;;;2.23;;
21521;SDS011;10922;45.572;10.002;2023-03-25T11:06:28;5.10;;;2.33;;
21521;SDS011;10922;45.572;10.002;2023-03-25T11:11:35;5.30;;;4.80;;
21521;SDS011;10922;45.572;10.002;2023-03-25T11:14:01;5.83;;;3.10;;
21521;SDS011;10922;45.572;10.002;2023-03-25T11:16:35;4.47;;;2.93;;
21521;SDS011;10922;45.572;10.002;2023-03-25T11:19:11;3.40;;;2.57;;
21521;SDS011;10922;45.572;10.002;2023-03-25T11:21:44;5.37;;;3.77;;
21521;SDS011;10922;45.572;10.002;2023-03-25T11:24:12;4.57;;;2.47;;
21521;SDS011;10922;45.572;10.002;2023-03-25T11:26:42;2.80;;;2.33;;
21521;SDS011;10922;45.572;10.002;2023-03-25T11:29:14;3.13;;;2.60;;
21521;SDS011;10922;45.572;10.002;2023-03-25T11:31:43;2.97;;;2.77;;
21521;SDS011;10922;45.572;10.002;2023-03-25T11:34:19;2.90;;;2.70;;
21521;SDS011;10922;45.572;10.002;2023-03-25T11:36:59;5.77;;;4.03;;
21521;SDS011;10922;45.572;10.002;2023-03-25T11:39:37;3.43;;;2.27;;
21521;SDS011;10922;45.572;10.002;2023-03-25T11:44:56;5.60;;;2.83;;
21521;SDS011;10922;45.572;10.002;2023-03-25T11:47:44;4.60;;;2.60;;
21521;SDS011;10922;45.572;10.002;2023-03-25T11:50:17;3.70;;;2.90;;
21521;SDS011;10922;45.572;10.002;2023-03-25T11:52:48;3.63;;;3.23;;
21521;SDS011;10922;45.572;10.002;2023-03-25T11:55:22;6.20;;;4.60;;
21521;SDS011;10922;45.572;10.002;2023-03-25T11:57:55;7.47;;;4.23;;
21521;SDS011;10922;45.572;10.002;2023-03-25T12:00:29;5.37;;;4.30;;
21521;SDS011;10922;45.572;10.002;2023-03-25T12:05:34;4.53;;;3.53;;
21521;SDS011;10922;45.572;10.002;2023-03-25T12:08:09;5.50;;;3.87;;
21521;SDS011;10922;45.572;10.002;2023-03-25T12:13:31;4.30;;;3.50;;
21521;SDS011;10922;45.572;10.002;2023-03-25T12:16:36;4.40;;;4.00;;
21521;SDS011;10922;45.572;10.002;2023-03-25T12:33:42;6.43;;;2.20;;
21521;SDS011;10922;45.572;10.002;2023-03-25T12:41:48;3.37;;;2.10;;
21521;SDS011;10922;45.572;10.002;2023-03-25T12:49:42;3.63;;;1.87;;
21521;SDS011;10922;45.572;10.002;2023-03-25T13:03:18;2.10;;;1.90;;
21521;SDS011;10922;45.572;10.002;2023-03-25T13:08:24;2.83;;;2.20;;
21521;SDS011;10922;45.572;10.002;2023-03-25T13:14:00;3.97;;;2.00;;
21521;SDS011;10922;45.572;10.002;2023-03-25T13:16:30;2.35;;;2.08;;
21521;SDS011;10922;45.572;10.002;2023-03-25T13:19:05;2.22;;;1.98;;
21521;SDS011;10922;45.572;10.002;2023-03-25T13:21:42;2.80;;;1.90;;
21521;SDS011;10922;45.572;10.002;2023-03-25T13:24:26;4.70;;;2.50;;
21521;SDS011;10922;45.572;10.002;2023-03-25T13:27:00;7.40;;;2.33;;
21521;SDS011;10922;45.572;10.002;2023-03-25T13:29:30;5.03;;;2.78;;
21521;SDS011;10922;45.572;10.002;2023-03-25T13:32:07;3.55;;;2.92;;
21521;SDS011;10922;45.572;10.002;2023-03-25T13:34:51;3.00;;;2.38;;
21521;SDS011;10922;45.572;10.002;2023-03-25T13:42:58;2.33;;;2.13;;
21521;SDS011;10922;45.572;10.002;2023-03-25T13:45:39;2.78;;;2.08;;
21521;SDS011;10922;45.572;10.002;2023-03-25T13:48:20;3.20;;;2.00;;
21521;SDS011;10922;45.572;10.002;2023-03-25T13:51:00;3.08;;;2.13;;
21521;SDS011;10922;45.572;10.002;2023-03-25T14:13:35;4.13;;;2.58;;
21521;SDS011;10922;45.572;10.002;2023-03-25T14:16:11;2.20;;;2.10;;
21521;SDS011;10922;45.572;10.002;2023-03-25T14:18:45;2.17;;;1.65;;
21521;SDS011;10922;45.572;10.002;2023-03-25T14:23:46;1.50;;;1.40;;
21521;SDS011;10922;45.572;10.002;2023-03-25T14:26:20;1.60;;;1.50;;
21521;SDS011;10922;45.572;10.002;2023-03-25T14:28:49;2.50;;;1.35;;
21521;SDS011;10922;45.572;10.002;2023-03-25T14:37:08;5.15;;;1.60;;
21521;SDS011;10922;45.572;10.002;2023-03-25T14:41:56;3.22;;;1.63;;
21521;SDS011;10922;45.572;10.002;2023-03-25T14:44:29;2.25;;;1.10;;
21521;SDS011;10922;45.572;10.002;2023-03-25T14:52:21;2.25;;;1.42;;
21521;SDS011;10922;45.572;10.002;2023-03-25T14:55:19;5.45;;;1.40;;
21521;SDS011;10922;45.572;10.002;2023-03-25T14:57:48;2.60;;;1.00;;
21521;SDS011;10922;45.572;10.002;2023-03-25T15:00:22;1.58;;;1.10;;
21521;SDS011;10922;45.572;10.002;2023-03-25T15:03:03;2.42;;;1.08;;
21521;SDS011;10922;45.572;10.002;2023-03-25T15:05:34;1.88;;;1.42;;
21521;SDS011;10922;45.572;10.002;2023-03-25T15:10:43;1.23;;;0.95;;
21521;SDS011;10922;45.572;10.002;2023-03-25T15:15:59;1.08;;;0.93;;
21521;SDS011;10922;45.572;10.002;2023-03-25T15:21:18;6.43;;;1.17;;
21521;SDS011;10922;45.572;10.002;2023-03-25T15:42:32;3.70;;;0.95;;
21521;SDS011;10922;45.572;10.002;2023-03-25T15:48:39;1.02;;;0.93;;
21521;SDS011;10922;45.572;10.002;2023-03-25T15:51:35;1.98;;;1.20;;
21521;SDS011;10922;45.572;10.002;2023-03-25T15:56:40;1.33;;;0.90;;
21521;SDS011;10922;45.572;10.002;2023-03-25T16:02:02;0.80;;;0.80;;
21521;SDS011;10922;45.572;10.002;2023-03-25T16:04:38;0.80;;;0.80;;
21521;SDS011;10922;45.572;10.002;2023-03-25T16:07:09;0.80;;;0.80;;
21521;SDS011;10922;45.572;10.002;2023-03-25T16:09:39;0.95;;;0.75;;
21521;SDS011;10922;45.572;10.002;2023-03-25T16:12:09;0.70;;;0.70;;
21521;SDS011;10922;45.572;10.002;2023-03-25T16:14:35;1.95;;;0.73;;
21521;SDS011;10922;45.572;10.002;2023-03-25T16:17:01;1.40;;;0.80;;
21521;SDS011;10922;45.572;10.002;2023-03-25T16:22:19;1.40;;;0.80;;
21521;SDS011;10922;45.572;10.002;2023-03-25T16:24:50;0.88;;;0.88;;
21521;SDS011;10922;45.572;10.002;2023-03-25T16:27:26;1.95;;;0.70;;
21521;SDS011;10922;45.572;10.002;2023-03-25T16:29:55;0.77;;;0.70;;
21521;SDS011;10922;45.572;10.002;2023-03-25T16:32:23;1.33;;;0.75;;
21521;SDS011;10922;45.572;10.002;2023-03-25T16:34:55;1.27;;;1.00;;
21521;SDS011;10922;45.572;10.002;2023-03-25T16:37:21;1.02;;;0.63;;
21521;SDS011;10922;45.572;10.002;2023-03-25T16:39:53;0.55;;;0.55;;
21521;SDS011;10922;45.572;10.002;2023-03-25T16:44:58;1.27;;;1.02;;
21521;SDS011;10922;45.572;10.002;2023-03-25T16:47:25;0.80;;;0.80;;
21521;SDS011;10922;45.572;10.002;2023-03-25T16:49:54;1.08;;;0.88;;
21521;SDS011;10922;45.572;10.002;2023-03-25T16:52:22;1.38;;;0.88;;
21521;SDS011;10922;45.572;10.002;2023-03-25T16:57:17;1.20;;;0.68;;
21521;SDS011;10922;45.572;10.002;2023-03-25T16:59:47;1.55;;;0.55;;
21521;SDS011;10922;45.572;10.002;2023-03-25T17:04:53;1.00;;;0.93;;
21521;SDS011;10922;45.572;10.002;2023-03-25T17:07:23;1.20;;;0.70;;
21521;SDS011;10922;45.572;10.002;2023-03-25T17:09:53;3.47;;;0.73;;
21521;SDS011;10922;45.572;10.002;2023-03-25T17:12:25;4.22;;;1.08;;
21521;SDS011;10922;45.572;10.002;2023-03-25T17:14:57;1.40;;;0.90;;
21521;SDS011;10922;45.572;10.002;2023-03-25T17:20:06;1.05;;;0.93;;
21521;SDS011;10922;45.572;10.002;2023-03-25T17:22:39;2.38;;;1.20;;
21521;SDS011;10922;45.572;10.002;2023-03-25T17:28:03;2.10;;;0.90;;
21521;SDS011;10922;45.572;10.002;2023-03-25T17:30:43;3.63;;;1.10;;
21521;SDS011;10922;45.572;10.002;2023-03-25T17:33:17;3.10;;;1.03;;
21521;SDS011;10922;45.572;10.002;2023-03-25T17:35:53;2.83;;;1.43;;
21521;SDS011;10922;45.572;10.002;2023-03-25T17:38:24;1.60;;;0.73;;
21521;SDS011;10922;45.572;10.002;2023-03-25T17:40:58;5.63;;;1.37;;
21521;SDS011;10922;45.572;10.002;2023-03-25T17:43:25;3.27;;;1.10;;
21521;SDS011;10922;45.572;10.002;2023-03-25T17:45:53;1.37;;;0.83;;
21521;SDS011;10922;45.572;10.002;2023-03-25T17:48:19;1.83;;;0.80;;
21521;SDS011;10922;45.572;10.002;2023-03-25T17:50:50;2.80;;;1.13;;
21521;SDS011;10922;45.572;10.002;2023-03-25T17:53:17;2.97;;;1.30;;
21521;SDS011;10922;45.572;10.002;2023-03-25T17:55:44;1.73;;;0.80;;
21521;SDS011;10922;45.572;10.002;2023-03-25T17:58:10;0.73;;;0.73;;
21521;SDS011;10922;45.572;10.002;2023-03-25T18:00:37;2.43;;;1.00;;
21521;SDS011;10922;45.572;10.002;2023-03-25T18:03:13;0.97;;;0.83;;
21521;SDS011;10922;45.572;10.002;2023-03-25T18:05:41;0.90;;;0.70;;
21521;SDS011;10922;45.572;10.002;2023-03-25T18:08:11;0.60;;;0.60;;